HRT weather

Tragamex Legaria Heliport
Tragamex Legaria, Ciudad de México, Mexico

Public forecast

Using degrees Celsius for public forecast. Weather courtesy of forecast.io.

Closest aviation weather report (METAR) to Tragamex Legaria Heliport

Closest report is Licenciado Benito Juarez International Airport, 7.9 nm (14.7 km) E. Retrieved 2019/12/07 10:42 UTC (31 minutes ago):

MMMX 071042Z 05004KT 9SM SKC 07/03 A3049 NOSIG RMK HZY

Closest aviation forecast (TAF) to Tragamex Legaria Heliport

Closest forecast is Licenciado Benito Juarez International Airport, 7.9 nm (14.7 km) E. Retrieved 2019/12/07 06:14 UTC (5 hours ago):

TAF MMMX 070511Z 0706/0812 30005KT P6SM SKC TX21/0721Z TN08/0712Z FM071600 03005KT P6SM SKC FM072100 06010KT P6SM SKC FM080200 03005KT P6SM SCT020 FM081000 03005KT 3SM BR HZ SCT010